Aguilar, Colorado
Current Conditions -  °F | °C
As of 8:54 AM on Friday 31 Oct 2014 (Local Time) from KTAD Reporting Station
Clear Clear  
Wind Chill: 39°   Ceiling: Unl
Heat Index: 43°   Visibility: 10mi
Dew Point: 25°   Wind: 7mph
Humidity: 49%   Direction: 40°NE
Pressure: 30.38"   Gusts: NA
Location:  37.4°N, 104.65°W
Report Text: KTAD 311454Z AUTO 04006KT 10SM CLR 06/M04 A3038 RMK AO2 SLP267 T00611039 55002
Loading
Personal Weather Stations






























Interactive Weather Map
Tropical Storm Tracking
New forecast layout! Learn more

10-Day Weather Forecast

Advertisements
Track Severe Weather on mobile